sensor_id;sensor_type;location;lat;lon;timestamp;P1;P2;P0
23240;PMS7003;11789;53.482;9.862;2023-08-31T00:00:22;8.25;8.25;5.75
23240;PMS7003;11789;53.482;9.862;2023-08-31T00:02:47;8.25;8.25;5.75
23240;PMS7003;11789;53.482;9.862;2023-08-31T00:05:13;10.50;9.25;5.50
23240;PMS7003;11789;53.482;9.862;2023-08-31T00:07:38;8.00;8.00;6.50
23240;PMS7003;11789;53.482;9.862;2023-08-31T00:10:04;11.75;7.25;5.50
23240;PMS7003;11789;53.482;9.862;2023-08-31T00:12:34;9.00;9.00;5.75
23240;PMS7003;11789;53.482;9.862;2023-08-31T00:15:01;11.00;11.00;6.75
23240;PMS7003;11789;53.482;9.862;2023-08-31T00:17:27;9.25;9.25;6.00
23240;PMS7003;11789;53.482;9.862;2023-08-31T00:19:52;9.50;9.50;6.25
23240;PMS7003;11789;53.482;9.862;2023-08-31T00:22:19;11.75;11.75;8.00
23240;PMS7003;11789;53.482;9.862;2023-08-31T00:24:45;9.25;8.75;6.00
23240;PMS7003;11789;53.482;9.862;2023-08-31T00:27:10;14.25;14.25;8.50
23240;PMS7003;11789;53.482;9.862;2023-08-31T00:29:37;17.00;13.25;9.00
23240;PMS7003;11789;53.482;9.862;2023-08-31T00:32:04;10.75;9.75;7.75
23240;PMS7003;11789;53.482;9.862;2023-08-31T00:34:30;10.75;10.75;8.00
23240;PMS7003;11789;53.482;9.862;2023-08-31T00:36:56;12.25;12.00;7.75
23240;PMS7003;11789;53.482;9.862;2023-08-31T00:39:21;13.75;12.25;9.00
23240;PMS7003;11789;53.482;9.862;2023-08-31T00:41:47;16.50;15.00;9.50
23240;PMS7003;11789;53.482;9.862;2023-08-31T00:44:13;12.50;12.00;8.75
23240;PMS7003;11789;53.482;9.862;2023-08-31T00:46:38;13.00;12.00;7.00
23240;PMS7003;11789;53.482;9.862;2023-08-31T00:49:05;18.75;12.75;9.25
23240;PMS7003;11789;53.482;9.862;2023-08-31T00:51:31;11.75;11.50;10.25
23240;PMS7003;11789;53.482;9.862;2023-08-31T00:53:56;16.00;14.00;10.75
23240;PMS7003;11789;53.482;9.862;2023-08-31T00:56:24;12.00;12.00;9.75
23240;PMS7003;11789;53.482;9.862;2023-08-31T00:58:50;15.75;12.50;9.00
23240;PMS7003;11789;53.482;9.862;2023-08-31T01:01:18;15.75;15.75;10.00
23240;PMS7003;11789;53.482;9.862;2023-08-31T01:06:50;15.50;13.75;9.75
23240;PMS7003;11789;53.482;9.862;2023-08-31T01:12:02;17.00;15.50;9.00
23240;PMS7003;11789;53.482;9.862;2023-08-31T01:14:34;12.75;12.25;9.00
23240;PMS7003;11789;53.482;9.862;2023-08-31T01:17:07;13.75;13.50;9.50
23240;PMS7003;11789;53.482;9.862;2023-08-31T01:19:44;14.25;12.25;8.75
23240;PMS7003;11789;53.482;9.862;2023-08-31T01:22:15;14.50;14.50;9.75
23240;PMS7003;11789;53.482;9.862;2023-08-31T01:24:57;14.50;13.75;8.75
23240;PMS7003;11789;53.482;9.862;2023-08-31T01:27:27;16.00;13.00;8.75
23240;PMS7003;11789;53.482;9.862;2023-08-31T01:29:54;12.25;12.25;8.50
23240;PMS7003;11789;53.482;9.862;2023-08-31T01:32:20;10.75;10.25;7.75
23240;PMS7003;11789;53.482;9.862;2023-08-31T01:34:45;15.25;14.25;10.25
23240;PMS7003;11789;53.482;9.862;2023-08-31T01:37:13;10.50;10.50;9.75
23240;PMS7003;11789;53.482;9.862;2023-08-31T01:42:15;13.25;13.25;9.25
23240;PMS7003;11789;53.482;9.862;2023-08-31T01:44:41;12.00;12.00;8.75
23240;PMS7003;11789;53.482;9.862;2023-08-31T01:47:10;14.50;14.50;9.75
23240;PMS7003;11789;53.482;9.862;2023-08-31T01:49:39;13.00;12.25;8.50
23240;PMS7003;11789;53.482;9.862;2023-08-31T01:52:05;8.50;6.25;4.00
23240;PMS7003;11789;53.482;9.862;2023-08-31T01:54:32;15.50;12.25;7.75
23240;PMS7003;11789;53.482;9.862;2023-08-31T01:56:58;11.25;11.25;7.00
23240;PMS7003;11789;53.482;9.862;2023-08-31T01:59:23;13.50;13.50;8.50
23240;PMS7003;11789;53.482;9.862;2023-08-31T02:01:49;12.50;12.50;8.75
23240;PMS7003;11789;53.482;9.862;2023-08-31T02:04:14;12.25;12.25;8.50
23240;PMS7003;11789;53.482;9.862;2023-08-31T02:06:40;16.00;13.00;9.75
23240;PMS7003;11789;53.482;9.862;2023-08-31T02:09:05;15.00;13.50;8.75
23240;PMS7003;11789;53.482;9.862;2023-08-31T02:11:31;12.00;10.25;7.25
23240;PMS7003;11789;53.482;9.862;2023-08-31T02:13:57;10.75;10.75;8.50
23240;PMS7003;11789;53.482;9.862;2023-08-31T02:16:23;14.50;13.00;8.50
23240;PMS7003;11789;53.482;9.862;2023-08-31T02:18:49;12.75;10.50;9.25
23240;PMS7003;11789;53.482;9.862;2023-08-31T02:21:14;10.75;9.25;6.50
23240;PMS7003;11789;53.482;9.862;2023-08-31T02:23:39;9.25;9.25;6.50
23240;PMS7003;11789;53.482;9.862;2023-08-31T02:26:05;9.50;9.50;7.75
23240;PMS7003;11789;53.482;9.862;2023-08-31T02:28:30;10.25;10.25;7.75
23240;PMS7003;11789;53.482;9.862;2023-08-31T02:31:02;12.50;11.75;9.00
23240;PMS7003;11789;53.482;9.862;2023-08-31T02:33:28;12.75;10.25;7.75
23240;PMS7003;11789;53.482;9.862;2023-08-31T02:35:54;8.00;8.00;8.00
23240;PMS7003;11789;53.482;9.862;2023-08-31T02:38:20;12.00;9.50;6.75
23240;PMS7003;11789;53.482;9.862;2023-08-31T02:40:46;12.25;12.25;8.75
23240;PMS7003;11789;53.482;9.862;2023-08-31T02:43:12;11.00;10.50;7.75
23240;PMS7003;11789;53.482;9.862;2023-08-31T02:45:38;10.50;10.50;7.50
23240;PMS7003;11789;53.482;9.862;2023-08-31T02:48:04;10.50;10.50;7.75
23240;PMS7003;11789;53.482;9.862;2023-08-31T02:50:32;12.25;10.25;7.00
23240;PMS7003;11789;53.482;9.862;2023-08-31T02:52:59;11.00;11.00;7.50
23240;PMS7003;11789;53.482;9.862;2023-08-31T02:55:24;11.00;9.50;7.25
23240;PMS7003;11789;53.482;9.862;2023-08-31T02:57:50;10.25;10.00;7.50
23240;PMS7003;11789;53.482;9.862;2023-08-31T03:00:15;9.25;9.25;7.25
23240;PMS7003;11789;53.482;9.862;2023-08-31T03:02:41;8.75;8.50;5.75
23240;PMS7003;11789;53.482;9.862;2023-08-31T03:05:08;9.25;9.25;7.50
23240;PMS7003;11789;53.482;9.862;2023-08-31T03:07:34;11.75;9.75;7.50
23240;PMS7003;11789;53.482;9.862;2023-08-31T03:09:59;10.25;10.25;7.50
23240;PMS7003;11789;53.482;9.862;2023-08-31T03:12:25;14.50;12.75;8.00
23240;PMS7003;11789;53.482;9.862;2023-08-31T03:14:50;9.00;9.00;6.50
23240;PMS7003;11789;53.482;9.862;2023-08-31T03:17:15;8.50;8.50;6.25
23240;PMS7003;11789;53.482;9.862;2023-08-31T03:19:41;8.50;8.25;5.75
23240;PMS7003;11789;53.482;9.862;2023-08-31T03:22:06;9.00;9.00;6.25
23240;PMS7003;11789;53.482;9.862;2023-08-31T03:24:32;10.50;9.75;7.00
23240;PMS7003;11789;53.482;9.862;2023-08-31T03:26:58;7.75;7.25;5.50
23240;PMS7003;11789;53.482;9.862;2023-08-31T03:29:23;9.75;9.25;7.50
23240;PMS7003;11789;53.482;9.862;2023-08-31T03:31:49;9.25;9.25;6.50
23240;PMS7003;11789;53.482;9.862;2023-08-31T03:34:14;12.50;11.00;7.00
23240;PMS7003;11789;53.482;9.862;2023-08-31T03:36:40;14.00;11.25;7.00
23240;PMS7003;11789;53.482;9.862;2023-08-31T03:39:06;9.50;9.50;7.25
23240;PMS7003;11789;53.482;9.862;2023-08-31T03:41:31;7.50;7.50;5.50
23240;PMS7003;11789;53.482;9.862;2023-08-31T03:43:57;9.75;9.75;7.25
23240;PMS7003;11789;53.482;9.862;2023-08-31T03:46:22;10.25;9.50;7.00
23240;PMS7003;11789;53.482;9.862;2023-08-31T03:48:48;10.00;8.00;7.00
23240;PMS7003;11789;53.482;9.862;2023-08-31T03:51:13;9.00;9.00;7.50
23240;PMS7003;11789;53.482;9.862;2023-08-31T03:53:39;9.25;9.25;6.00
23240;PMS7003;11789;53.482;9.862;2023-08-31T03:56:04;8.75;7.50;4.50
23240;PMS7003;11789;53.482;9.862;2023-08-31T03:58:30;9.25;9.25;7.00
23240;PMS7003;11789;53.482;9.862;2023-08-31T04:00:56;10.25;9.25;7.00
23240;PMS7003;11789;53.482;9.862;2023-08-31T04:03:21;8.50;7.00;5.50
23240;PMS7003;11789;53.482;9.862;2023-08-31T04:05:47;8.75;8.00;6.00
23240;PMS7003;11789;53.482;9.862;2023-08-31T04:08:13;8.75;8.50;6.75
23240;PMS7003;11789;53.482;9.862;2023-08-31T04:10:38;8.75;7.25;5.00
23240;PMS7003;11789;53.482;9.862;2023-08-31T04:13:04;7.75;7.75;6.75
23240;PMS7003;11789;53.482;9.862;2023-08-31T04:15:29;9.00;7.00;5.25
23240;PMS7003;11789;53.482;9.862;2023-08-31T04:17:56;8.00;8.00;6.75
23240;PMS7003;11789;53.482;9.862;2023-08-31T04:20:21;9.50;7.75;5.75
23240;PMS7003;11789;53.482;9.862;2023-08-31T04:22:47;10.00;8.75;5.50
23240;PMS7003;11789;53.482;9.862;2023-08-31T04:25:12;9.00;9.00;5.50
23240;PMS7003;11789;53.482;9.862;2023-08-31T04:27:38;10.50;7.50;5.75
23240;PMS7003;11789;53.482;9.862;2023-08-31T04:30:06;7.75;7.75;6.00
23240;PMS7003;11789;53.482;9.862;2023-08-31T04:32:32;9.00;7.75;6.00
23240;PMS7003;11789;53.482;9.862;2023-08-31T04:34:58;10.00;8.00;6.00
23240;PMS7003;11789;53.482;9.862;2023-08-31T04:37:24;9.75;8.00;7.00
23240;PMS7003;11789;53.482;9.862;2023-08-31T04:39:49;11.75;8.75;6.00
23240;PMS7003;11789;53.482;9.862;2023-08-31T04:42:15;11.00;8.00;5.50
23240;PMS7003;11789;53.482;9.862;2023-08-31T04:44:42;8.50;8.50;6.00
23240;PMS7003;11789;53.482;9.862;2023-08-31T04:47:07;8.75;8.75;6.75
23240;PMS7003;11789;53.482;9.862;2023-08-31T04:49:33;9.00;9.00;7.00
23240;PMS7003;11789;53.482;9.862;2023-08-31T04:51:58;7.50;7.25;5.25
23240;PMS7003;11789;53.482;9.862;2023-08-31T04:54:24;11.75;9.00;7.00
23240;PMS7003;11789;53.482;9.862;2023-08-31T04:56:50;11.75;9.25;6.75
23240;PMS7003;11789;53.482;9.862;2023-08-31T04:59:16;10.25;8.75;6.25
23240;PMS7003;11789;53.482;9.862;2023-08-31T05:01:41;10.00;8.50;7.00
23240;PMS7003;11789;53.482;9.862;2023-08-31T05:04:06;9.25;9.25;7.25
23240;PMS7003;11789;53.482;9.862;2023-08-31T05:06:32;10.75;10.00;7.75
23240;PMS7003;11789;53.482;9.862;2023-08-31T05:08:57;11.00;9.75;7.50
23240;PMS7003;11789;53.482;9.862;2023-08-31T05:11:23;10.25;10.25;8.25
23240;PMS7003;11789;53.482;9.862;2023-08-31T05:13:48;11.25;10.00;7.25
23240;PMS7003;11789;53.482;9.862;2023-08-31T05:16:14;8.25;8.00;7.00
23240;PMS7003;11789;53.482;9.862;2023-08-31T05:18:39;8.25;8.25;5.50
23240;PMS7003;11789;53.482;9.862;2023-08-31T05:21:05;11.00;9.25;6.50
23240;PMS7003;11789;53.482;9.862;2023-08-31T05:23:31;9.25;9.25;7.25
23240;PMS7003;11789;53.482;9.862;2023-08-31T05:25:57;9.50;7.75;6.00
23240;PMS7003;11789;53.482;9.862;2023-08-31T05:28:23;9.50;8.00;6.00
23240;PMS7003;11789;53.482;9.862;2023-08-31T05:30:49;10.75;10.00;7.50
23240;PMS7003;11789;53.482;9.862;2023-08-31T05:33:16;8.75;8.75;6.25
23240;PMS7003;11789;53.482;9.862;2023-08-31T05:35:42;9.75;8.75;5.50
23240;PMS7003;11789;53.482;9.862;2023-08-31T05:38:08;9.00;9.00;7.50
23240;PMS7003;11789;53.482;9.862;2023-08-31T05:40:33;8.75;8.75;6.25
23240;PMS7003;11789;53.482;9.862;2023-08-31T05:42:59;9.00;9.00;7.00
23240;PMS7003;11789;53.482;9.862;2023-08-31T05:45:24;9.00;9.00;7.25
23240;PMS7003;11789;53.482;9.862;2023-08-31T05:47:50;9.50;8.25;5.25
23240;PMS7003;11789;53.482;9.862;2023-08-31T05:50:15;6.75;6.75;5.50
23240;PMS7003;11789;53.482;9.862;2023-08-31T05:52:41;5.50;5.50;4.50
23240;PMS7003;11789;53.482;9.862;2023-08-31T05:55:09;9.75;8.00;6.25
23240;PMS7003;11789;53.482;9.862;2023-08-31T05:57:35;10.00;7.25;5.75
23240;PMS7003;11789;53.482;9.862;2023-08-31T06:00:02;7.50;7.50;5.25
23240;PMS7003;11789;53.482;9.862;2023-08-31T06:02:29;8.00;7.75;5.25
23240;PMS7003;11789;53.482;9.862;2023-08-31T06:04:54;7.50;7.50;5.25
23240;PMS7003;11789;53.482;9.862;2023-08-31T06:07:19;9.50;9.50;6.50
23240;PMS7003;11789;53.482;9.862;2023-08-31T06:09:45;7.50;7.50;5.75
23240;PMS7003;11789;53.482;9.862;2023-08-31T06:12:10;9.00;8.50;7.00
23240;PMS7003;11789;53.482;9.862;2023-08-31T06:14:36;9.00;7.75;5.50
23240;PMS7003;11789;53.482;9.862;2023-08-31T06:17:01;9.75;7.50;5.50
23240;PMS7003;11789;53.482;9.862;2023-08-31T06:19:26;6.75;6.75;5.25
23240;PMS7003;11789;53.482;9.862;2023-08-31T06:21:52;9.25;9.25;6.75
23240;PMS7003;11789;53.482;9.862;2023-08-31T06:24:17;10.75;9.50;6.50
23240;PMS7003;11789;53.482;9.862;2023-08-31T06:26:43;10.50;9.25;5.50
23240;PMS7003;11789;53.482;9.862;2023-08-31T06:29:08;8.75;8.75;6.00
23240;PMS7003;11789;53.482;9.862;2023-08-31T06:31:35;8.25;6.50;5.25
23240;PMS7003;11789;53.482;9.862;2023-08-31T06:34:01;12.75;11.00;7.25
23240;PMS7003;11789;53.482;9.862;2023-08-31T06:36:27;10.00;8.00;6.50
23240;PMS7003;11789;53.482;9.862;2023-08-31T06:38:52;10.00;10.00;7.50
23240;PMS7003;11789;53.482;9.862;2023-08-31T06:41:18;8.75;8.75;6.50
23240;PMS7003;11789;53.482;9.862;2023-08-31T06:43:43;10.00;8.75;7.25
23240;PMS7003;11789;53.482;9.862;2023-08-31T06:46:10;10.25;9.75;7.00
23240;PMS7003;11789;53.482;9.862;2023-08-31T06:48:36;7.00;7.00;5.25
23240;PMS7003;11789;53.482;9.862;2023-08-31T06:51:02;8.50;8.50;6.00
23240;PMS7003;11789;53.482;9.862;2023-08-31T06:53:29;7.75;7.75;5.50
23240;PMS7003;11789;53.482;9.862;2023-08-31T06:55:56;8.75;7.50;4.50
23240;PMS7003;11789;53.482;9.862;2023-08-31T06:58:22;7.25;7.00;4.75
23240;PMS7003;11789;53.482;9.862;2023-08-31T07:00:47;9.50;8.00;6.00
23240;PMS7003;11789;53.482;9.862;2023-08-31T07:03:13;7.75;6.00;4.50
23240;PMS7003;11789;53.482;9.862;2023-08-31T07:05:41;8.75;6.25;3.75
23240;PMS7003;11789;53.482;9.862;2023-08-31T07:08:07;3.50;3.50;2.00
23240;PMS7003;11789;53.482;9.862;2023-08-31T07:10:33;4.25;4.25;3.75
23240;PMS7003;11789;53.482;9.862;2023-08-31T07:13:02;4.75;4.75;3.25
23240;PMS7003;11789;53.482;9.862;2023-08-31T07:15:28;7.75;7.50;4.50
23240;PMS7003;11789;53.482;9.862;2023-08-31T07:17:54;5.00;5.00;4.00
23240;PMS7003;11789;53.482;9.862;2023-08-31T07:20:20;6.25;6.25;3.75
23240;PMS7003;11789;53.482;9.862;2023-08-31T07:22:45;5.50;5.50;3.25
23240;PMS7003;11789;53.482;9.862;2023-08-31T07:25:11;7.75;6.00;4.25
23240;PMS7003;11789;53.482;9.862;2023-08-31T07:27:37;6.75;6.75;4.00
23240;PMS7003;11789;53.482;9.862;2023-08-31T07:30:03;7.50;7.50;5.00
23240;PMS7003;11789;53.482;9.862;2023-08-31T07:32:30;5.75;4.00;3.00
23240;PMS7003;11789;53.482;9.862;2023-08-31T07:34:56;8.00;8.00;5.00
23240;PMS7003;11789;53.482;9.862;2023-08-31T07:37:21;8.50;6.00;4.75
23240;PMS7003;11789;53.482;9.862;2023-08-31T07:39:47;6.50;5.00;3.50
23240;PMS7003;11789;53.482;9.862;2023-08-31T07:42:12;8.25;7.25;5.00
23240;PMS7003;11789;53.482;9.862;2023-08-31T07:44:38;5.50;5.50;4.25
23240;PMS7003;11789;53.482;9.862;2023-08-31T07:47:03;7.50;6.75;4.25
23240;PMS7003;11789;53.482;9.862;2023-08-31T07:49:29;10.25;5.00;4.00
23240;PMS7003;11789;53.482;9.862;2023-08-31T07:51:54;4.75;4.75;3.50
23240;PMS7003;11789;53.482;9.862;2023-08-31T07:54:20;8.25;5.50;4.00
23240;PMS7003;11789;53.482;9.862;2023-08-31T07:56:46;8.25;6.25;4.00
23240;PMS7003;11789;53.482;9.862;2023-08-31T07:59:11;8.25;4.25;3.50
23240;PMS7003;11789;53.482;9.862;2023-08-31T08:01:37;6.00;6.00;4.25
23240;PMS7003;11789;53.482;9.862;2023-08-31T08:04:02;6.00;4.25;3.75
23240;PMS7003;11789;53.482;9.862;2023-08-31T08:06:28;8.25;4.00;2.50
23240;PMS7003;11789;53.482;9.862;2023-08-31T08:08:54;8.50;7.00;4.75
23240;PMS7003;11789;53.482;9.862;2023-08-31T08:11:19;6.25;4.00;3.00
23240;PMS7003;11789;53.482;9.862;2023-08-31T08:13:47;4.00;4.00;3.00
23240;PMS7003;11789;53.482;9.862;2023-08-31T08:16:12;4.00;4.00;3.00
23240;PMS7003;11789;53.482;9.862;2023-08-31T08:18:37;8.00;5.75;4.25
23240;PMS7003;11789;53.482;9.862;2023-08-31T08:21:03;3.25;3.25;3.00
23240;PMS7003;11789;53.482;9.862;2023-08-31T08:23:28;4.75;4.25;3.50
23240;PMS7003;11789;53.482;9.862;2023-08-31T08:25:54;4.50;4.50;3.00
23240;PMS7003;11789;53.482;9.862;2023-08-31T08:28:19;4.25;4.25;3.00
23240;PMS7003;11789;53.482;9.862;2023-08-31T08:30:44;4.25;4.25;3.00
23240;PMS7003;11789;53.482;9.862;2023-08-31T08:33:10;7.25;6.00;4.00
23240;PMS7003;11789;53.482;9.862;2023-08-31T08:35:37;6.50;5.00;3.50
23240;PMS7003;11789;53.482;9.862;2023-08-31T08:38:03;5.25;5.25;4.25
23240;PMS7003;11789;53.482;9.862;2023-08-31T08:40:30;6.00;5.50;4.25
23240;PMS7003;11789;53.482;9.862;2023-08-31T08:42:56;5.50;5.50;4.25
23240;PMS7003;11789;53.482;9.862;2023-08-31T08:45:25;5.75;5.75;4.00
23240;PMS7003;11789;53.482;9.862;2023-08-31T08:48:01;5.50;5.50;4.75
23240;PMS7003;11789;53.482;9.862;2023-08-31T08:50:30;6.00;6.00;5.00
23240;PMS7003;11789;53.482;9.862;2023-08-31T08:52:59;5.00;5.00;4.00
23240;PMS7003;11789;53.482;9.862;2023-08-31T08:55:27;6.00;6.00;5.00
23240;PMS7003;11789;53.482;9.862;2023-08-31T08:57:52;6.25;6.25;4.75
23240;PMS7003;11789;53.482;9.862;2023-08-31T09:00:18;8.75;8.75;6.25
23240;PMS7003;11789;53.482;9.862;2023-08-31T09:02:43;8.75;5.25;5.00
23240;PMS7003;11789;53.482;9.862;2023-08-31T09:05:11;6.50;6.50;5.00
23240;PMS7003;11789;53.482;9.862;2023-08-31T09:07:36;12.75;8.50;5.50
23240;PMS7003;11789;53.482;9.862;2023-08-31T09:10:02;7.50;6.50;5.50
23240;PMS7003;11789;53.482;9.862;2023-08-31T09:12:29;7.75;7.75;6.00
23240;PMS7003;11789;53.482;9.862;2023-08-31T09:17:23;6.50;6.25;5.00
23240;PMS7003;11789;53.482;9.862;2023-08-31T09:19:59;6.75;6.00;5.50
23240;PMS7003;11789;53.482;9.862;2023-08-31T09:22:25;10.75;8.75;6.00
23240;PMS7003;11789;53.482;9.862;2023-08-31T09:24:51;8.00;6.00;5.00
23240;PMS7003;11789;53.482;9.862;2023-08-31T09:27:17;9.50;9.00;5.75
23240;PMS7003;11789;53.482;9.862;2023-08-31T09:29:45;7.50;7.50;6.00
23240;PMS7003;11789;53.482;9.862;2023-08-31T09:32:15;9.00;8.50;6.00
23240;PMS7003;11789;53.482;9.862;2023-08-31T09:34:42;12.25;9.00;6.50
23240;PMS7003;11789;53.482;9.862;2023-08-31T09:37:08;10.25;8.50;7.25
23240;PMS7003;11789;53.482;9.862;2023-08-31T09:39:38;7.25;7.25;6.00
23240;PMS7003;11789;53.482;9.862;2023-08-31T09:42:04;12.00;9.00;7.75
23240;PMS7003;11789;53.482;9.862;2023-08-31T09:44:30;10.25;9.00;7.50
23240;PMS7003;11789;53.482;9.862;2023-08-31T09:46:55;9.25;8.75;6.25
23240;PMS7003;11789;53.482;9.862;2023-08-31T09:49:22;8.50;8.50;6.00
23240;PMS7003;11789;53.482;9.862;2023-08-31T09:51:50;9.75;9.75;8.25
23240;PMS7003;11789;53.482;9.862;2023-08-31T09:54:17;10.50;10.50;8.00
23240;PMS7003;11789;53.482;9.862;2023-08-31T09:56:45;8.50;8.50;5.75
23240;PMS7003;11789;53.482;9.862;2023-08-31T09:59:12;8.50;8.50;6.75
23240;PMS7003;11789;53.482;9.862;2023-08-31T10:01:42;8.75;8.75;7.50
23240;PMS7003;11789;53.482;9.862;2023-08-31T10:04:10;11.75;9.25;7.00
23240;PMS7003;11789;53.482;9.862;2023-08-31T10:06:40;9.50;9.50;7.75
23240;PMS7003;11789;53.482;9.862;2023-08-31T10:09:07;11.75;11.25;7.75
23240;PMS7003;11789;53.482;9.862;2023-08-31T10:11:37;10.25;10.25;7.25
23240;PMS7003;11789;53.482;9.862;2023-08-31T10:14:03;11.75;9.25;7.50
23240;PMS7003;11789;53.482;9.862;2023-08-31T10:16:29;9.75;8.50;6.50
23240;PMS7003;11789;53.482;9.862;2023-08-31T10:18:55;9.75;8.25;7.25
23240;PMS7003;11789;53.482;9.862;2023-08-31T10:21:21;9.00;8.25;5.75
23240;PMS7003;11789;53.482;9.862;2023-08-31T10:23:48;9.75;9.75;8.25
23240;PMS7003;11789;53.482;9.862;2023-08-31T10:26:30;7.25;7.00;5.00
23240;PMS7003;11789;53.482;9.862;2023-08-31T10:28:57;8.25;7.00;6.00
23240;PMS7003;11789;53.482;9.862;2023-08-31T10:31:27;7.25;7.25;6.00
23240;PMS7003;11789;53.482;9.862;2023-08-31T10:36:33;9.75;7.75;6.75
23240;PMS7003;11789;53.482;9.862;2023-08-31T10:39:19;10.25;8.75;6.75
23240;PMS7003;11789;53.482;9.862;2023-08-31T10:41:52;9.75;7.75;5.75
23240;PMS7003;11789;53.482;9.862;2023-08-31T10:46:49;6.25;6.25;5.50
23240;PMS7003;11789;53.482;9.862;2023-08-31T10:49:16;8.50;8.50;6.75
23240;PMS7003;11789;53.482;9.862;2023-08-31T10:51:44;7.00;7.00;5.25
23240;PMS7003;11789;53.482;9.862;2023-08-31T10:54:21;5.00;5.00;4.25
23240;PMS7003;11789;53.482;9.862;2023-08-31T11:02:09;7.50;5.75;5.00
23240;PMS7003;11789;53.482;9.862;2023-08-31T11:07:31;6.75;6.75;5.50
23240;PMS7003;11789;53.482;9.862;2023-08-31T11:10:16;7.25;6.75;5.00
23240;PMS7003;11789;53.482;9.862;2023-08-31T11:12:44;9.00;7.25;5.50
23240;PMS7003;11789;53.482;9.862;2023-08-31T11:15:23;5.50;5.50;4.75
23240;PMS7003;11789;53.482;9.862;2023-08-31T11:17:51;7.00;7.00;6.00
23240;PMS7003;11789;53.482;9.862;2023-08-31T11:20:18;11.00;7.25;6.00
23240;PMS7003;11789;53.482;9.862;2023-08-31T11:22:48;5.25;5.25;4.75
23240;PMS7003;11789;53.482;9.862;2023-08-31T11:25:16;6.00;6.00;4.50
23240;PMS7003;11789;53.482;9.862;2023-08-31T11:27:42;4.00;4.00;4.00
23240;PMS7003;11789;53.482;9.862;2023-08-31T11:30:18;4.75;4.75;4.25
23240;PMS7003;11789;53.482;9.862;2023-08-31T11:32:46;5.75;5.75;4.25
23240;PMS7003;11789;53.482;9.862;2023-08-31T11:35:13;6.25;4.00;3.75
23240;PMS7003;11789;53.482;9.862;2023-08-31T11:37:40;3.00;3.00;3.00
23240;PMS7003;11789;53.482;9.862;2023-08-31T11:40:07;3.00;1.50;1.50
23240;PMS7003;11789;53.482;9.862;2023-08-31T11:42:33;5.25;2.25;2.00
23240;PMS7003;11789;53.482;9.862;2023-08-31T11:44:59;7.00;4.00;3.00
23240;PMS7003;11789;53.482;9.862;2023-08-31T11:47:25;3.00;3.00;2.00
23240;PMS7003;11789;53.482;9.862;2023-08-31T11:49:51;4.00;3.00;2.25
23240;PMS7003;11789;53.482;9.862;2023-08-31T11:52:17;6.50;2.75;2.50
23240;PMS7003;11789;53.482;9.862;2023-08-31T11:54:43;2.00;2.00;2.00
23240;PMS7003;11789;53.482;9.862;2023-08-31T11:57:10;2.00;2.00;1.50
23240;PMS7003;11789;53.482;9.862;2023-08-31T11:59:37;2.75;2.75;2.00
23240;PMS7003;11789;53.482;9.862;2023-08-31T12:02:07;2.00;2.00;2.00
23240;PMS7003;11789;53.482;9.862;2023-08-31T12:04:41;1.75;1.75;1.00
23240;PMS7003;11789;53.482;9.862;2023-08-31T12:07:11;1.25;1.25;1.25
23240;PMS7003;11789;53.482;9.862;2023-08-31T12:09:41;1.75;1.75;1.75
23240;PMS7003;11789;53.482;9.862;2023-08-31T12:12:09;1.00;1.00;1.00
23240;PMS7003;11789;53.482;9.862;2023-08-31T12:14:36;2.50;1.00;1.00
23240;PMS7003;11789;53.482;9.862;2023-08-31T12:17:05;3.00;1.00;1.00
23240;PMS7003;11789;53.482;9.862;2023-08-31T12:19:32;1.00;1.00;1.00
23240;PMS7003;11789;53.482;9.862;2023-08-31T12:21:58;1.00;1.00;1.00
23240;PMS7003;11789;53.482;9.862;2023-08-31T12:24:24;1.00;1.00;1.00
23240;PMS7003;11789;53.482;9.862;2023-08-31T12:26:50;1.33;1.33;1.00
23240;PMS7003;11789;53.482;9.862;2023-08-31T12:29:19;2.00;2.00;2.00
23240;PMS7003;11789;53.482;9.862;2023-08-31T12:31:44;1.25;1.25;1.00
23240;PMS7003;11789;53.482;9.862;2023-08-31T12:34:10;1.00;1.00;1.00
23240;PMS7003;11789;53.482;9.862;2023-08-31T12:36:36;1.00;1.00;1.00
23240;PMS7003;11789;53.482;9.862;2023-08-31T12:39:03;1.00;1.00;1.00
23240;PMS7003;11789;53.482;9.862;2023-08-31T12:41:32;1.00;1.00;1.00
23240;PMS7003;11789;53.482;9.862;2023-08-31T12:43:58;0.00;0.00;0.00
23240;PMS7003;11789;53.482;9.862;2023-08-31T12:46:24;0.00;0.00;0.00
23240;PMS7003;11789;53.482;9.862;2023-08-31T12:48:49;0.00;0.00;0.00
23240;PMS7003;11789;53.482;9.862;2023-08-31T12:51:15;0.00;0.00;0.00
23240;PMS7003;11789;53.482;9.862;2023-08-31T12:53:42;0.00;0.00;0.00
23240;PMS7003;11789;53.482;9.862;2023-08-31T12:56:07;0.00;0.00;0.00
23240;PMS7003;11789;53.482;9.862;2023-08-31T12:58:33;0.00;0.00;0.00
23240;PMS7003;11789;53.482;9.862;2023-08-31T13:00:58;0.00;0.00;0.00
23240;PMS7003;11789;53.482;9.862;2023-08-31T13:03:24;0.00;0.00;0.00
23240;PMS7003;11789;53.482;9.862;2023-08-31T13:05:50;0.00;0.00;0.00
23240;PMS7003;11789;53.482;9.862;2023-08-31T13:08:16;0.00;0.00;0.00
23240;PMS7003;11789;53.482;9.862;2023-08-31T13:10:41;0.00;0.00;0.00
23240;PMS7003;11789;53.482;9.862;2023-08-31T13:13:07;0.00;0.00;0.00
23240;PMS7003;11789;53.482;9.862;2023-08-31T13:15:32;0.00;0.00;0.00
23240;PMS7003;11789;53.482;9.862;2023-08-31T13:17:58;0.00;0.00;0.00
23240;PMS7003;11789;53.482;9.862;2023-08-31T13:20:24;0.00;0.00;0.00
23240;PMS7003;11789;53.482;9.862;2023-08-31T13:22:49;1.00;0.00;0.00
23240;PMS7003;11789;53.482;9.862;2023-08-31T13:25:15;0.00;0.00;0.00
23240;PMS7003;11789;53.482;9.862;2023-08-31T13:27:40;0.00;0.00;0.00
23240;PMS7003;11789;53.482;9.862;2023-08-31T13:30:06;0.00;0.00;0.00
23240;PMS7003;11789;53.482;9.862;2023-08-31T13:32:34;0.00;0.00;0.00
23240;PMS7003;11789;53.482;9.862;2023-08-31T13:34:59;0.00;0.00;0.00
23240;PMS7003;11789;53.482;9.862;2023-08-31T13:37:25;0.00;0.00;0.00
23240;PMS7003;11789;53.482;9.862;2023-08-31T13:39:51;0.00;0.00;0.00
23240;PMS7003;11789;53.482;9.862;2023-08-31T13:42:20;0.00;0.00;0.00
23240;PMS7003;11789;53.482;9.862;2023-08-31T13:44:46;0.00;0.00;0.00
23240;PMS7003;11789;53.482;9.862;2023-08-31T13:47:11;0.00;0.00;0.00
23240;PMS7003;11789;53.482;9.862;2023-08-31T13:49:37;1.00;0.00;0.00
23240;PMS7003;11789;53.482;9.862;2023-08-31T13:52:02;1.25;1.25;0.50
23240;PMS7003;11789;53.482;9.862;2023-08-31T13:54:30;0.00;0.00;0.00
23240;PMS7003;11789;53.482;9.862;2023-08-31T13:56:56;0.00;0.00;0.00
23240;PMS7003;11789;53.482;9.862;2023-08-31T13:59:21;0.00;0.00;0.00
23240;PMS7003;11789;53.482;9.862;2023-08-31T14:01:47;0.00;0.00;0.00
23240;PMS7003;11789;53.482;9.862;2023-08-31T14:04:13;0.00;0.00;0.00
23240;PMS7003;11789;53.482;9.862;2023-08-31T14:06:38;0.00;0.00;0.00
23240;PMS7003;11789;53.482;9.862;2023-08-31T14:09:04;1.00;0.00;0.00
23240;PMS7003;11789;53.482;9.862;2023-08-31T14:11:30;0.00;0.00;0.00
23240;PMS7003;11789;53.482;9.862;2023-08-31T14:14:02;0.33;0.00;0.00
23240;PMS7003;11789;53.482;9.862;2023-08-31T14:16:30;0.00;0.00;0.00
23240;PMS7003;11789;53.482;9.862;2023-08-31T14:18:57;0.33;0.33;0.00
23240;PMS7003;11789;53.482;9.862;2023-08-31T14:21:22;0.00;0.00;0.00
23240;PMS7003;11789;53.482;9.862;2023-08-31T14:23:47;0.00;0.00;0.00
23240;PMS7003;11789;53.482;9.862;2023-08-31T14:26:13;0.00;0.00;0.00
23240;PMS7003;11789;53.482;9.862;2023-08-31T14:28:38;0.00;0.00;0.00
23240;PMS7003;11789;53.482;9.862;2023-08-31T14:31:04;0.75;0.00;0.00
23240;PMS7003;11789;53.482;9.862;2023-08-31T14:33:30;0.00;0.00;0.00
23240;PMS7003;11789;53.482;9.862;2023-08-31T14:35:56;0.00;0.00;0.00